sensor_id;sensor_type;location;lat;lon;timestamp;temperature;humidity
11826;DHT22;5970;48.094;11.496;2023-02-08T00:01:32;-3.30;75.20
11826;DHT22;5970;48.094;11.496;2023-02-08T00:03:58;-3.30;75.20
11826;DHT22;5970;48.094;11.496;2023-02-08T00:06:25;-3.30;75.40
11826;DHT22;5970;48.094;11.496;2023-02-08T00:08:52;-3.40;75.50
11826;DHT22;5970;48.094;11.496;2023-02-08T00:11:18;-3.40;75.50
11826;DHT22;5970;48.094;11.496;2023-02-08T00:13:45;-3.40;75.40
11826;DHT22;5970;48.094;11.496;2023-02-08T00:16:13;-3.40;75.60
11826;DHT22;5970;48.094;11.496;2023-02-08T00:18:40;-3.50;75.70
11826;DHT22;5970;48.094;11.496;2023-02-08T00:21:08;-3.40;75.60
11826;DHT22;5970;48.094;11.496;2023-02-08T00:23:34;-3.50;75.60
11826;DHT22;5970;48.094;11.496;2023-02-08T00:26:01;-3.40;75.50
11826;DHT22;5970;48.094;11.496;2023-02-08T00:28:28;-3.50;75.40
11826;DHT22;5970;48.094;11.496;2023-02-08T00:30:55;-3.50;75.40
11826;DHT22;5970;48.094;11.496;2023-02-08T00:33:21;-3.60;75.20
11826;DHT22;5970;48.094;11.496;2023-02-08T00:35:48;-3.50;75.20
11826;DHT22;5970;48.094;11.496;2023-02-08T00:38:15;-3.40;74.70
11826;DHT22;5970;48.094;11.496;2023-02-08T00:40:41;-3.40;74.50
11826;DHT22;5970;48.094;11.496;2023-02-08T00:43:08;-3.30;74.50
11826;DHT22;5970;48.094;11.496;2023-02-08T00:45:35;-3.30;74.50
11826;DHT22;5970;48.094;11.496;2023-02-08T00:48:02;-3.40;74.50
11826;DHT22;5970;48.094;11.496;2023-02-08T00:50:29;-3.40;74.50
11826;DHT22;5970;48.094;11.496;2023-02-08T00:52:57;-3.50;74.80
11826;DHT22;5970;48.094;11.496;2023-02-08T00:55:24;-3.40;74.70
11826;DHT22;5970;48.094;11.496;2023-02-08T00:57:50;-3.50;74.90
11826;DHT22;5970;48.094;11.496;2023-02-08T01:00:17;-3.60;74.90
11826;DHT22;5970;48.094;11.496;2023-02-08T01:02:44;-3.60;75.00
11826;DHT22;5970;48.094;11.496;2023-02-08T01:05:19;-3.50;75.30
11826;DHT22;5970;48.094;11.496;2023-02-08T01:07:46;-3.50;75.20
11826;DHT22;5970;48.094;11.496;2023-02-08T01:10:13;-3.60;75.30
11826;DHT22;5970;48.094;11.496;2023-02-08T01:12:40;-3.60;75.60
11826;DHT22;5970;48.094;11.496;2023-02-08T01:15:07;-3.60;75.40
11826;DHT22;5970;48.094;11.496;2023-02-08T01:17:34;-3.60;75.30
11826;DHT22;5970;48.094;11.496;2023-02-08T01:20:01;-3.60;75.80
11826;DHT22;5970;48.094;11.496;2023-02-08T01:22:28;-3.80;75.80
11826;DHT22;5970;48.094;11.496;2023-02-08T01:24:55;-3.90;76.10
11826;DHT22;5970;48.094;11.496;2023-02-08T01:27:21;-3.80;76.30
11826;DHT22;5970;48.094;11.496;2023-02-08T01:29:48;-3.80;76.30
11826;DHT22;5970;48.094;11.496;2023-02-08T01:32:15;-3.90;76.10
11826;DHT22;5970;48.094;11.496;2023-02-08T01:34:42;-3.90;76.70
11826;DHT22;5970;48.094;11.496;2023-02-08T01:37:09;-3.90;76.80
11826;DHT22;5970;48.094;11.496;2023-02-08T01:39:36;-3.80;76.80
11826;DHT22;5970;48.094;11.496;2023-02-08T01:42:03;-3.80;76.50
11826;DHT22;5970;48.094;11.496;2023-02-08T01:47:15;-3.90;76.50
11826;DHT22;5970;48.094;11.496;2023-02-08T01:49:42;-3.90;76.70
11826;DHT22;5970;48.094;11.496;2023-02-08T01:52:10;-3.80;76.80
11826;DHT22;5970;48.094;11.496;2023-02-08T01:54:39;-3.80;77.00
11826;DHT22;5970;48.094;11.496;2023-02-08T01:57:07;-3.70;77.10
11826;DHT22;5970;48.094;11.496;2023-02-08T01:59:39;-3.80;77.10
11826;DHT22;5970;48.094;11.496;2023-02-08T02:02:08;-3.70;76.90
11826;DHT22;5970;48.094;11.496;2023-02-08T02:04:35;-3.70;77.00
11826;DHT22;5970;48.094;11.496;2023-02-08T02:07:02;-3.70;76.90
11826;DHT22;5970;48.094;11.496;2023-02-08T02:09:35;-3.80;76.90
11826;DHT22;5970;48.094;11.496;2023-02-08T02:12:04;-3.90;77.30
11826;DHT22;5970;48.094;11.496;2023-02-08T02:14:31;-3.90;77.50
11826;DHT22;5970;48.094;11.496;2023-02-08T02:16:59;-3.90;77.30
11826;DHT22;5970;48.094;11.496;2023-02-08T02:19:30;-3.90;77.50
11826;DHT22;5970;48.094;11.496;2023-02-08T02:27:25;-4.20;78.20
11826;DHT22;5970;48.094;11.496;2023-02-08T02:38:04;-3.90;78.60
11826;DHT22;5970;48.094;11.496;2023-02-08T02:46:21;-4.00;79.00
11826;DHT22;5970;48.094;11.496;2023-02-08T02:51:21;-4.10;79.40
11826;DHT22;5970;48.094;11.496;2023-02-08T02:56:18;-4.00;79.20
11826;DHT22;5970;48.094;11.496;2023-02-08T02:58:47;-3.90;79.10
11826;DHT22;5970;48.094;11.496;2023-02-08T03:01:20;-4.10;79.00
11826;DHT22;5970;48.094;11.496;2023-02-08T03:03:47;-4.20;79.30
11826;DHT22;5970;48.094;11.496;2023-02-08T03:06:13;-4.20;79.40
11826;DHT22;5970;48.094;11.496;2023-02-08T03:11:38;-4.20;79.70
11826;DHT22;5970;48.094;11.496;2023-02-08T03:14:12;-4.20;79.30
11826;DHT22;5970;48.094;11.496;2023-02-08T03:19:34;-4.20;79.60
11826;DHT22;5970;48.094;11.496;2023-02-08T03:22:04;-4.10;79.20
11826;DHT22;5970;48.094;11.496;2023-02-08T03:24:37;-4.30;79.40
11826;DHT22;5970;48.094;11.496;2023-02-08T03:27:08;-4.20;79.80
11826;DHT22;5970;48.094;11.496;2023-02-08T03:29:40;-4.10;79.20
11826;DHT22;5970;48.094;11.496;2023-02-08T03:32:20;-4.20;79.30
11826;DHT22;5970;48.094;11.496;2023-02-08T03:34:53;-4.20;79.50
11826;DHT22;5970;48.094;11.496;2023-02-08T03:40:09;-4.40;80.00
11826;DHT22;5970;48.094;11.496;2023-02-08T03:42:37;-4.40;79.60
11826;DHT22;5970;48.094;11.496;2023-02-08T03:45:06;-4.50;80.00
11826;DHT22;5970;48.094;11.496;2023-02-08T03:47:36;-4.40;79.90
11826;DHT22;5970;48.094;11.496;2023-02-08T03:50:04;-4.50;80.60
11826;DHT22;5970;48.094;11.496;2023-02-08T03:52:32;-4.50;80.30
11826;DHT22;5970;48.094;11.496;2023-02-08T03:55:00;-4.60;80.70
11826;DHT22;5970;48.094;11.496;2023-02-08T03:57:29;-4.50;80.60
11826;DHT22;5970;48.094;11.496;2023-02-08T04:00:02;-4.40;80.40
11826;DHT22;5970;48.094;11.496;2023-02-08T04:02:30;-4.40;80.20
11826;DHT22;5970;48.094;11.496;2023-02-08T04:04:59;-4.40;80.30
11826;DHT22;5970;48.094;11.496;2023-02-08T04:07:27;-4.50;80.40
11826;DHT22;5970;48.094;11.496;2023-02-08T04:09:54;-4.40;80.70
11826;DHT22;5970;48.094;11.496;2023-02-08T04:12:20;-4.30;80.60
11826;DHT22;5970;48.094;11.496;2023-02-08T04:14:47;-4.30;80.20
11826;DHT22;5970;48.094;11.496;2023-02-08T04:17:14;-4.30;80.10
11826;DHT22;5970;48.094;11.496;2023-02-08T04:19:40;-4.00;80.30
11826;DHT22;5970;48.094;11.496;2023-02-08T04:22:07;-4.50;80.70
11826;DHT22;5970;48.094;11.496;2023-02-08T04:24:34;-4.50;80.70
11826;DHT22;5970;48.094;11.496;2023-02-08T04:27:00;-4.50;80.70
11826;DHT22;5970;48.094;11.496;2023-02-08T04:29:30;-4.60;81.10
11826;DHT22;5970;48.094;11.496;2023-02-08T04:31:56;-4.60;81.40
11826;DHT22;5970;48.094;11.496;2023-02-08T04:34:25;-4.50;81.30
11826;DHT22;5970;48.094;11.496;2023-02-08T04:36:52;-4.50;81.10
11826;DHT22;5970;48.094;11.496;2023-02-08T04:39:19;-4.50;81.30
11826;DHT22;5970;48.094;11.496;2023-02-08T04:41:46;-4.50;81.30
11826;DHT22;5970;48.094;11.496;2023-02-08T04:44:13;-4.50;81.50
11826;DHT22;5970;48.094;11.496;2023-02-08T04:46:40;-4.50;81.70
11826;DHT22;5970;48.094;11.496;2023-02-08T04:49:06;-4.50;81.80
11826;DHT22;5970;48.094;11.496;2023-02-08T04:51:33;-4.40;81.70
11826;DHT22;5970;48.094;11.496;2023-02-08T04:54:00;-4.40;81.50
11826;DHT22;5970;48.094;11.496;2023-02-08T04:56:26;-4.40;81.80
11826;DHT22;5970;48.094;11.496;2023-02-08T04:58:56;-4.40;81.90
11826;DHT22;5970;48.094;11.496;2023-02-08T05:01:22;-4.40;82.00
11826;DHT22;5970;48.094;11.496;2023-02-08T05:03:49;-4.40;82.00
11826;DHT22;5970;48.094;11.496;2023-02-08T05:06:16;-4.30;81.80
11826;DHT22;5970;48.094;11.496;2023-02-08T05:08:43;-4.30;82.00
11826;DHT22;5970;48.094;11.496;2023-02-08T05:11:09;-4.30;81.70
11826;DHT22;5970;48.094;11.496;2023-02-08T05:13:36;-4.30;81.70
11826;DHT22;5970;48.094;11.496;2023-02-08T05:16:03;-4.50;81.80
11826;DHT22;5970;48.094;11.496;2023-02-08T05:18:30;-4.50;82.20
11826;DHT22;5970;48.094;11.496;2023-02-08T05:20:57;-4.40;82.60
11826;DHT22;5970;48.094;11.496;2023-02-08T05:23:25;-4.50;82.50
11826;DHT22;5970;48.094;11.496;2023-02-08T05:25:52;-4.70;82.80
11826;DHT22;5970;48.094;11.496;2023-02-08T05:28:18;-4.70;83.50
11826;DHT22;5970;48.094;11.496;2023-02-08T05:30:46;-4.60;83.60
11826;DHT22;5970;48.094;11.496;2023-02-08T05:33:13;-4.70;83.40
11826;DHT22;5970;48.094;11.496;2023-02-08T05:35:39;-4.60;83.60
11826;DHT22;5970;48.094;11.496;2023-02-08T05:38:06;-4.50;83.60
11826;DHT22;5970;48.094;11.496;2023-02-08T05:40:33;-4.60;83.40
11826;DHT22;5970;48.094;11.496;2023-02-08T05:43:00;-4.70;83.70
11826;DHT22;5970;48.094;11.496;2023-02-08T05:45:26;-4.60;83.80
11826;DHT22;5970;48.094;11.496;2023-02-08T05:47:53;-4.70;84.20
11826;DHT22;5970;48.094;11.496;2023-02-08T05:50:20;-4.70;84.10
11826;DHT22;5970;48.094;11.496;2023-02-08T05:52:47;-4.70;84.40
11826;DHT22;5970;48.094;11.496;2023-02-08T05:55:13;-4.90;84.70
11826;DHT22;5970;48.094;11.496;2023-02-08T05:57:40;-4.80;85.10
11826;DHT22;5970;48.094;11.496;2023-02-08T06:00:07;-4.70;84.70
11826;DHT22;5970;48.094;11.496;2023-02-08T06:02:34;-4.70;85.00
11826;DHT22;5970;48.094;11.496;2023-02-08T06:05:00;-4.70;85.00
11826;DHT22;5970;48.094;11.496;2023-02-08T06:07:27;-4.60;84.70
11826;DHT22;5970;48.094;11.496;2023-02-08T06:09:55;-4.60;84.40
11826;DHT22;5970;48.094;11.496;2023-02-08T06:12:21;-4.50;84.70
11826;DHT22;5970;48.094;11.496;2023-02-08T06:14:48;-4.60;84.50
11826;DHT22;5970;48.094;11.496;2023-02-08T06:17:15;-4.50;84.70
11826;DHT22;5970;48.094;11.496;2023-02-08T06:19:42;-4.50;84.60
11826;DHT22;5970;48.094;11.496;2023-02-08T06:22:08;-4.50;84.70
11826;DHT22;5970;48.094;11.496;2023-02-08T06:24:35;-4.60;85.00
11826;DHT22;5970;48.094;11.496;2023-02-08T06:27:02;-4.60;85.10
11826;DHT22;5970;48.094;11.496;2023-02-08T06:29:28;-4.60;84.90
11826;DHT22;5970;48.094;11.496;2023-02-08T06:31:55;-4.60;85.00
11826;DHT22;5970;48.094;11.496;2023-02-08T06:34:22;-4.60;85.40
11826;DHT22;5970;48.094;11.496;2023-02-08T06:36:49;-4.70;85.70
11826;DHT22;5970;48.094;11.496;2023-02-08T06:39:16;-4.70;85.80
11826;DHT22;5970;48.094;11.496;2023-02-08T06:41:43;-4.70;85.80
11826;DHT22;5970;48.094;11.496;2023-02-08T06:44:09;-4.70;85.80
11826;DHT22;5970;48.094;11.496;2023-02-08T06:46:36;-4.70;85.80
11826;DHT22;5970;48.094;11.496;2023-02-08T06:49:03;-4.70;85.90
11826;DHT22;5970;48.094;11.496;2023-02-08T06:51:29;-4.60;86.20
11826;DHT22;5970;48.094;11.496;2023-02-08T06:53:56;-4.70;86.40
11826;DHT22;5970;48.094;11.496;2023-02-08T06:56:23;-4.70;86.60
11826;DHT22;5970;48.094;11.496;2023-02-08T06:58:50;-4.70;86.80
11826;DHT22;5970;48.094;11.496;2023-02-08T07:01:16;-4.80;86.80
11826;DHT22;5970;48.094;11.496;2023-02-08T07:03:43;-4.70;86.90
11826;DHT22;5970;48.094;11.496;2023-02-08T07:06:11;-4.70;86.80
11826;DHT22;5970;48.094;11.496;2023-02-08T07:08:38;-4.70;87.00
11826;DHT22;5970;48.094;11.496;2023-02-08T07:11:08;-4.50;87.10
11826;DHT22;5970;48.094;11.496;2023-02-08T07:13:35;-4.60;87.00
11826;DHT22;5970;48.094;11.496;2023-02-08T07:16:03;-4.40;87.20
11826;DHT22;5970;48.094;11.496;2023-02-08T07:18:30;-4.50;87.30
11826;DHT22;5970;48.094;11.496;2023-02-08T07:20:56;-4.10;87.60
11826;DHT22;5970;48.094;11.496;2023-02-08T07:23:23;-4.30;86.90
11826;DHT22;5970;48.094;11.496;2023-02-08T07:28:43;-4.60;87.70
11826;DHT22;5970;48.094;11.496;2023-02-08T07:31:11;-4.50;87.60
11826;DHT22;5970;48.094;11.496;2023-02-08T07:33:38;-4.50;87.70
11826;DHT22;5970;48.094;11.496;2023-02-08T07:36:05;-4.50;87.90
11826;DHT22;5970;48.094;11.496;2023-02-08T07:38:33;-4.40;87.70
11826;DHT22;5970;48.094;11.496;2023-02-08T07:41:03;-4.30;87.60
11826;DHT22;5970;48.094;11.496;2023-02-08T07:43:32;-4.20;87.60
11826;DHT22;5970;48.094;11.496;2023-02-08T07:46:10;-4.20;87.20
11826;DHT22;5970;48.094;11.496;2023-02-08T07:48:38;-4.10;87.20
11826;DHT22;5970;48.094;11.496;2023-02-08T07:51:06;-4.20;86.90
11826;DHT22;5970;48.094;11.496;2023-02-08T07:53:32;-4.00;87.00
11826;DHT22;5970;48.094;11.496;2023-02-08T07:55:59;-4.00;86.80
11826;DHT22;5970;48.094;11.496;2023-02-08T07:58:29;-4.00;86.80
11826;DHT22;5970;48.094;11.496;2023-02-08T08:00:55;-3.90;87.20
11826;DHT22;5970;48.094;11.496;2023-02-08T08:03:22;-3.80;87.10
11826;DHT22;5970;48.094;11.496;2023-02-08T08:05:50;-3.80;87.10
11826;DHT22;5970;48.094;11.496;2023-02-08T08:08:20;-3.70;87.20
11826;DHT22;5970;48.094;11.496;2023-02-08T08:10:47;-3.70;86.50
11826;DHT22;5970;48.094;11.496;2023-02-08T08:13:14;-3.60;86.50
11826;DHT22;5970;48.094;11.496;2023-02-08T08:15:41;-3.50;86.40
11826;DHT22;5970;48.094;11.496;2023-02-08T08:18:08;-3.50;86.00
11826;DHT22;5970;48.094;11.496;2023-02-08T08:20:35;-3.40;86.00
11826;DHT22;5970;48.094;11.496;2023-02-08T08:23:01;-3.40;85.90
11826;DHT22;5970;48.094;11.496;2023-02-08T08:25:28;-3.30;85.80
11826;DHT22;5970;48.094;11.496;2023-02-08T08:27:55;-3.20;85.50
11826;DHT22;5970;48.094;11.496;2023-02-08T08:30:22;-3.00;85.50
11826;DHT22;5970;48.094;11.496;2023-02-08T08:32:49;-3.10;85.20
11826;DHT22;5970;48.094;11.496;2023-02-08T08:35:15;-3.10;84.90
11826;DHT22;5970;48.094;11.496;2023-02-08T08:37:42;-3.00;85.20
11826;DHT22;5970;48.094;11.496;2023-02-08T08:40:09;-2.90;85.20
11826;DHT22;5970;48.094;11.496;2023-02-08T08:42:36;-2.80;85.00
11826;DHT22;5970;48.094;11.496;2023-02-08T08:45:05;-2.60;84.90
11826;DHT22;5970;48.094;11.496;2023-02-08T08:47:32;-2.60;84.50
11826;DHT22;5970;48.094;11.496;2023-02-08T08:49:59;-2.60;84.30
11826;DHT22;5970;48.094;11.496;2023-02-08T08:52:26;-2.60;84.40
11826;DHT22;5970;48.094;11.496;2023-02-08T08:54:53;-2.40;84.60
11826;DHT22;5970;48.094;11.496;2023-02-08T08:57:20;-1.80;84.70
11826;DHT22;5970;48.094;11.496;2023-02-08T08:59:46;-2.30;83.70
11826;DHT22;5970;48.094;11.496;2023-02-08T09:02:13;-2.20;83.40
11826;DHT22;5970;48.094;11.496;2023-02-08T09:04:40;-2.00;83.40
11826;DHT22;5970;48.094;11.496;2023-02-08T09:07:08;-2.00;83.20
11826;DHT22;5970;48.094;11.496;2023-02-08T09:09:35;-1.90;83.40
11826;DHT22;5970;48.094;11.496;2023-02-08T09:12:02;-1.70;83.30
11826;DHT22;5970;48.094;11.496;2023-02-08T09:14:32;-1.70;82.90
11826;DHT22;5970;48.094;11.496;2023-02-08T09:16:59;-1.60;82.10
11826;DHT22;5970;48.094;11.496;2023-02-08T09:19:26;-1.60;81.80
11826;DHT22;5970;48.094;11.496;2023-02-08T09:21:53;-1.40;82.00
11826;DHT22;5970;48.094;11.496;2023-02-08T09:24:20;-1.20;81.80
11826;DHT22;5970;48.094;11.496;2023-02-08T09:26:46;-1.00;81.90
11826;DHT22;5970;48.094;11.496;2023-02-08T09:29:13;-1.00;80.60
11826;DHT22;5970;48.094;11.496;2023-02-08T09:31:40;-0.50;80.50
11826;DHT22;5970;48.094;11.496;2023-02-08T09:34:07;-1.10;79.90
11826;DHT22;5970;48.094;11.496;2023-02-08T09:36:35;-1.10;79.70
11826;DHT22;5970;48.094;11.496;2023-02-08T09:39:12;-1.10;79.40
11826;DHT22;5970;48.094;11.496;2023-02-08T09:44:34;-0.90;79.30
11826;DHT22;5970;48.094;11.496;2023-02-08T09:47:12;-0.70;79.60
11826;DHT22;5970;48.094;11.496;2023-02-08T09:49:49;-0.80;79.40
11826;DHT22;5970;48.094;11.496;2023-02-08T09:52:24;-0.90;79.10
11826;DHT22;5970;48.094;11.496;2023-02-08T09:54:53;-0.80;79.80
11826;DHT22;5970;48.094;11.496;2023-02-08T09:57:23;-0.60;79.50
11826;DHT22;5970;48.094;11.496;2023-02-08T09:59:52;-0.70;79.70
11826;DHT22;5970;48.094;11.496;2023-02-08T10:02:24;-0.50;80.00
11826;DHT22;5970;48.094;11.496;2023-02-08T10:05:11;-0.50;80.10
11826;DHT22;5970;48.094;11.496;2023-02-08T10:07:39;-0.40;80.20
11826;DHT22;5970;48.094;11.496;2023-02-08T10:10:13;-0.30;80.80
11826;DHT22;5970;48.094;11.496;2023-02-08T10:12:43;-0.30;80.30
11826;DHT22;5970;48.094;11.496;2023-02-08T10:15:15;-0.50;80.20
11826;DHT22;5970;48.094;11.496;2023-02-08T10:17:51;-0.50;80.20
11826;DHT22;5970;48.094;11.496;2023-02-08T10:20:26;-0.40;80.50
11826;DHT22;5970;48.094;11.496;2023-02-08T10:22:57;-0.50;80.80
11826;DHT22;5970;48.094;11.496;2023-02-08T10:25:30;-0.40;80.90
11826;DHT22;5970;48.094;11.496;2023-02-08T10:33:25;-0.10;80.00
11826;DHT22;5970;48.094;11.496;2023-02-08T10:35:54;-0.20;79.90
11826;DHT22;5970;48.094;11.496;2023-02-08T10:38:26;-0.10;81.00
11826;DHT22;5970;48.094;11.496;2023-02-08T10:41:14;0.00;80.80
11826;DHT22;5970;48.094;11.496;2023-02-08T10:43:44;0.10;80.20
11826;DHT22;5970;48.094;11.496;2023-02-08T10:51:33;0.60;81.30
11826;DHT22;5970;48.094;11.496;2023-02-08T10:54:03;0.60;80.50
11826;DHT22;5970;48.094;11.496;2023-02-08T10:56:38;0.80;80.50
11826;DHT22;5970;48.094;11.496;2023-02-08T10:59:12;1.00;80.20
11826;DHT22;5970;48.094;11.496;2023-02-08T11:01:39;0.70;78.60
11826;DHT22;5970;48.094;11.496;2023-02-08T11:04:07;0.70;78.60
11826;DHT22;5970;48.094;11.496;2023-02-08T11:06:36;0.60;79.30
11826;DHT22;5970;48.094;11.496;2023-02-08T11:09:03;0.60;79.30
11826;DHT22;5970;48.094;11.496;2023-02-08T11:11:34;0.90;79.70
11826;DHT22;5970;48.094;11.496;2023-02-08T11:14:08;0.90;79.20
11826;DHT22;5970;48.094;11.496;2023-02-08T11:16:35;0.90;78.70
11826;DHT22;5970;48.094;11.496;2023-02-08T11:19:02;1.00;78.00
11826;DHT22;5970;48.094;11.496;2023-02-08T11:21:37;0.90;77.90
11826;DHT22;5970;48.094;11.496;2023-02-08T11:29:14;2.60;77.00
11826;DHT22;5970;48.094;11.496;2023-02-08T11:34:32;4.80;72.90
